Time;durP1;ratioP1;P1;durP2;ratioP2;P2;SDS_P1;SDS_P2;PMS_P1;PMS_P2;Temp;Humidity;BMP_temperature;BMP_pressure;BME280_temperature;BME280_humidity;BME280_pressure;Samples;Min_cycle;Max_cycle;Signal;HPM_P1;HPM_P2
2021/04/27 00:00:13;;;;;;;5.23;2.23;;;;;;;3.27;61.59;99483.52;1676944;83;21187;-52
2021/04/27 00:02:40;;;;;;;7.23;2.13;;;;;;;3.24;61.80;99486.24;1693292;82;21122;-53
2021/04/27 00:05:09;;;;;;;7.33;2.13;;;;;;;3.21;62.06;99485.88;1692714;82;21170;-53
2021/04/27 00:07:37;;;;;;;8.37;2.73;;;;;;;3.18;62.12;99485.94;1677148;83;23128;-52
2021/04/27 00:10:06;;;;;;;4.87;2.17;;;;;;;3.15;62.21;99489.98;1670725;83;21424;-52
2021/04/27 00:12:34;;;;;;;5.47;1.70;;;;;;;3.13;61.96;99495.82;1691897;82;21149;-52
2021/04/27 00:15:03;;;;;;;6.50;1.67;;;;;;;3.11;61.92;99494.97;1691905;82;21110;-52
2021/04/27 00:17:30;;;;;;;4.70;1.70;;;;;;;3.10;61.93;99494.55;1671890;83;21223;-52
2021/04/27 00:19:57;;;;;;;7.50;1.80;;;;;;;3.09;61.95;99496.78;1669204;83;23354;-52
2021/04/27 00:22:25;;;;;;;4.33;1.57;;;;;;;3.08;61.75;99494.15;1669992;83;21319;-53
2021/04/27 00:24:52;;;;;;;6.03;1.77;;;;;;;3.08;61.69;99500.34;1687831;82;21249;-53
2021/04/27 00:27:19;;;;;;;5.97;1.60;;;;;;;3.09;61.60;99503.43;1669943;83;21211;-53
2021/04/27 00:29:48;;;;;;;3.30;1.60;;;;;;;3.07;61.76;99502.58;1670143;83;21231;-53
2021/04/27 00:32:15;;;;;;;3.73;1.37;;;;;;;3.07;61.73;99502.58;1670489;83;21096;-53
2021/04/27 00:34:43;;;;;;;4.43;1.63;;;;;;;3.07;61.61;99511.02;1688322;82;21216;-52
2021/04/27 00:37:10;;;;;;;6.33;1.70;;;;;;;3.07;61.59;99508.35;1666945;83;21222;-52
2021/04/27 00:39:37;;;;;;;7.00;1.50;;;;;;;3.06;61.67;99509.29;1688716;82;21186;-52
2021/04/27 00:42:05;;;;;;;4.23;1.93;;;;;;;3.06;61.71;99510.16;1682384;82;21255;-52
2021/04/27 00:44:33;;;;;;;4.33;1.30;;;;;;;3.04;61.63;99510.19;1697751;82;22849;-52
2021/04/27 00:47:01;;;;;;;4.20;1.70;;;;;;;3.03;61.66;99512.42;1695846;82;21211;-52
2021/04/27 00:49:29;;;;;;;4.03;1.20;;;;;;;3.03;61.64;99514.20;1667019;84;21130;-52
2021/04/27 00:51:56;;;;;;;3.53;1.47;;;;;;;3.02;61.76;99512.00;1689391;83;21149;-52
2021/04/27 00:54:24;;;;;;;5.67;1.40;;;;;;;3.03;61.85;99514.20;1669575;84;21147;-52
2021/04/27 00:56:51;;;;;;;3.40;1.30;;;;;;;3.00;62.02;99508.95;1688172;83;21433;-52
2021/04/27 00:59:18;;;;;;;2.23;1.13;;;;;;;2.99;62.09;99513.84;1690975;83;21139;-51
2021/04/27 01:01:46;;;;;;;2.60;1.53;;;;;;;2.98;62.21;99511.63;1657446;83;21207;-52
2021/04/27 01:04:14;;;;;;;4.27;1.40;;;;;;;2.97;62.29;99511.69;1668327;84;21175;-52
2021/04/27 01:06:41;;;;;;;3.97;1.20;;;;;;;2.96;62.41;99512.14;1689622;83;21603;-52
2021/04/27 01:09:15;;;;;;;3.17;1.37;;;;;;;2.97;62.54;99516.56;1668886;84;21229;-52
2021/04/27 01:11:50;;;;;;;3.10;1.07;;;;;;;2.97;62.61;99514.34;1691336;83;21149;-52
2021/04/27 01:14:35;;;;;;;4.70;1.40;;;;;;;2.96;62.71;99516.13;1645690;83;21216;-52
2021/04/27 01:17:06;;;;;;;3.50;1.42;;;;;;;2.97;62.83;99517.02;1691186;83;21180;-53
2021/04/27 01:19:48;;;;;;;3.40;1.22;;;;;;;2.98;62.85;99522.27;1688032;83;21907;-52
2021/04/27 01:22:20;;;;;;;10.37;1.37;;;;;;;2.99;62.99;99517.83;1689887;83;21466;-52
2021/04/27 01:24:51;;;;;;;3.13;1.27;;;;;;;2.98;63.04;99519.61;1686666;83;21233;-52
2021/04/27 01:27:18;;;;;;;2.63;1.10;;;;;;;2.98;63.12;99514.29;1687461;83;21643;-52
2021/04/27 01:29:46;;;;;;;3.40;1.10;;;;;;;2.99;63.15;99520.03;1691307;83;21632;-52
2021/04/27 01:32:14;;;;;;;3.37;1.13;;;;;;;2.98;63.26;99516.95;1691223;83;21129;-53
2021/04/27 01:34:45;;;;;;;5.93;1.23;;;;;;;2.98;63.37;99521.39;1686355;83;23175;-51
2021/04/27 01:37:26;;;;;;;3.43;1.13;;;;;;;2.95;63.42;99524.13;1685012;83;21965;-51
2021/04/27 01:39:54;;;;;;;2.70;1.30;;;;;;;2.92;63.52;99523.73;1665050;83;21172;-51
2021/04/27 01:42:21;;;;;;;3.37;1.20;;;;;;;2.91;63.62;99528.63;1662155;83;21399;-50
2021/04/27 01:44:50;;;;;;;2.90;1.27;;;;;;;2.91;63.72;99525.09;1690663;83;21673;-50
2021/04/27 01:47:18;;;;;;;3.37;1.13;;;;;;;2.90;63.80;99518.90;1688823;83;21437;-52
2021/04/27 01:49:46;;;;;;;5.27;1.07;;;;;;;2.88;63.94;99525.18;1664531;84;21274;-51
2021/04/27 01:52:31;;;;;;;3.33;0.90;;;;;;;2.88;64.08;99530.49;1667266;84;21445;-51
2021/04/27 01:55:01;;;;;;;5.10;1.10;;;;;;;2.85;64.34;99527.44;1678667;83;21183;-51
2021/04/27 01:57:29;;;;;;;4.70;1.17;;;;;;;2.81;64.47;99520.87;1660962;84;21207;-50
2021/04/27 01:59:57;;;;;;;2.33;0.90;;;;;;;2.79;64.63;99526.24;1662426;84;21476;-51
2021/04/27 02:02:26;;;;;;;1.57;0.90;;;;;;;2.78;64.81;99527.59;1656196;84;21239;-52
2021/04/27 02:04:56;;;;;;;2.80;1.20;;;;;;;2.76;65.00;99525.41;1659958;85;21243;-51
2021/04/27 02:07:35;;;;;;;3.00;0.90;;;;;;;2.80;65.17;99529.78;1869966;75;26890;-50
2021/04/27 02:10:08;;;;;;;3.00;1.10;;;;;;;2.76;65.32;99528.08;1776246;78;21139;-52
2021/04/27 02:12:39;;;;;;;1.57;0.80;;;;;;;2.74;65.46;99521.91;1778740;78;22412;-52
2021/04/27 02:15:08;;;;;;;3.13;0.80;;;;;;;2.73;65.60;99525.02;1781968;78;20972;-52
2021/04/27 02:17:52;;;;;;;1.50;0.80;;;;;;;2.71;65.76;99528.18;1769601;79;21200;-51
2021/04/27 02:20:24;;;;;;;3.80;0.83;;;;;;;2.72;65.86;99525.08;1776139;78;21316;-52
2021/04/27 02:22:59;;;;;;;2.67;0.90;;;;;;;2.75;65.98;99530.30;1803638;78;20984;-50
2021/04/27 02:25:38;;;;;;;2.70;0.90;;;;;;;2.80;66.07;99525.79;1868280;75;27239;-51
2021/04/27 02:28:06;;;;;;;2.43;0.73;;;;;;;2.78;66.17;99528.92;1838622;76;22352;-49
2021/04/27 02:30:33;;;;;;;1.10;0.70;;;;;;;2.78;66.30;99524.48;1836800;76;23378;-52
2021/04/27 02:33:00;;;;;;;3.40;0.70;;;;;;;2.78;66.42;99520.50;1808610;76;21253;-51
2021/04/27 02:35:27;;;;;;;1.40;0.80;;;;;;;2.77;66.48;99518.74;1803136;77;21573;-51
2021/04/27 02:37:55;;;;;;;2.50;0.80;;;;;;;2.77;66.53;99528.50;1807377;77;22172;-49
2021/04/27 02:40:33;;;;;;;1.77;0.80;;;;;;;2.76;66.60;99532.94;1776979;78;21227;-51
2021/04/27 02:43:01;;;;;;;2.60;1.10;;;;;;;2.74;66.68;99529.88;1777174;78;22117;-52
2021/04/27 02:45:33;;;;;;;4.03;1.10;;;;;;;2.71;66.75;99528.63;1777964;78;21211;-49
2021/04/27 02:48:22;;;;;;;2.80;0.90;;;;;;;2.68;66.86;99528.23;1773064;78;21173;-50
2021/04/27 02:50:54;;;;;;;2.23;0.83;;;;;;;2.64;67.01;99534.05;1806492;78;21103;-49
2021/04/27 02:53:22;;;;;;;3.63;1.10;;;;;;;2.62;67.12;99535.88;1804986;78;21131;-51
2021/04/27 02:55:49;;;;;;;3.40;1.00;;;;;;;2.60;67.24;99537.69;1774614;78;21614;-51
2021/04/27 02:58:19;;;;;;;1.93;0.90;;;;;;;2.58;67.34;99527.98;1813181;77;21196;-49
2021/04/27 03:00:48;;;;;;;3.27;0.70;;;;;;;2.55;67.46;99532.89;1809376;77;21142;-50
2021/04/27 03:03:16;;;;;;;1.30;0.80;;;;;;;2.56;67.56;99534.65;1777988;78;22282;-52
2021/04/27 03:05:44;;;;;;;1.73;0.70;;;;;;;2.58;67.59;99526.66;1773904;79;21134;-51
2021/04/27 03:08:11;;;;;;;3.57;1.00;;;;;;;2.62;67.70;99536.33;1777941;79;21437;-52
2021/04/27 03:10:39;;;;;;;1.80;0.80;;;;;;;2.64;67.73;99535.37;1800392;78;21139;-50
2021/04/27 03:13:06;;;;;;;1.97;0.80;;;;;;;2.65;67.75;99536.25;1781771;79;21171;-51
2021/04/27 03:15:35;;;;;;;5.73;0.93;;;;;;;2.66;67.78;99536.68;1779083;78;21210;-52
2021/04/27 03:18:04;;;;;;;6.50;0.97;;;;;;;2.67;67.81;99543.75;1777883;79;21562;-50
2021/04/27 03:20:31;;;;;;;1.40;0.90;;;;;;;2.67;67.81;99538.44;1783995;79;21202;-51
2021/04/27 03:23:00;;;;;;;3.37;0.97;;;;;;;2.66;67.87;99538.89;1779506;78;21443;-49
2021/04/27 03:25:27;;;;;;;2.00;1.00;;;;;;;2.66;67.96;99538.89;1738135;80;21020;-51
2021/04/27 03:27:56;;;;;;;7.03;1.00;;;;;;;2.68;67.98;99541.97;1725553;80;21182;-49
2021/04/27 03:30:34;;;;;;;2.80;1.40;;;;;;;2.71;68.03;99538.81;1847794;75;28508;-52
2021/04/27 03:33:04;;;;;;;2.33;1.10;;;;;;;2.73;68.00;99549.38;1835943;76;21170;-50
2021/04/27 03:35:32;;;;;;;2.03;1.10;;;;;;;2.82;67.96;99544.77;1840795;76;22290;-53
2021/04/27 03:38:00;;;;;;;1.93;1.13;;;;;;;2.86;67.95;99545.14;1772038;78;21191;-52
2021/04/27 03:41:28;;;;;;;1.83;0.97;;;;;;;2.93;68.11;99545.43;1860035;75;26897;-53
2021/04/27 03:43:57;;;;;;;4.90;0.90;;;;;;;2.95;68.13;99548.06;1779384;79;21157;-52
2021/04/27 03:46:25;;;;;;;2.27;1.20;;;;;;;2.98;68.18;99544.87;1777400;78;21717;-53
2021/04/27 03:48:53;;;;;;;2.67;0.90;;;;;;;3.02;68.25;99541.25;1788014;78;21020;-52
2021/04/27 03:51:22;;;;;;;2.63;0.90;;;;;;;3.10;68.28;99546.86;1754124;80;21175;-52
2021/04/27 03:53:59;;;;;;;2.27;1.30;;;;;;;3.24;68.30;99546.09;1846430;74;27701;-52
2021/04/27 03:56:28;;;;;;;2.00;0.90;;;;;;;3.38;68.21;99544.91;1842911;75;20929;-51
2021/04/27 03:58:56;;;;;;;4.03;1.03;;;;;;;3.57;68.00;99549.35;1838011;75;21376;-52
2021/04/27 04:01:24;;;;;;;1.47;1.00;;;;;;;3.72;67.85;99541.45;1804314;75;21172;-52
2021/04/27 04:03:52;;;;;;;2.00;1.10;;;;;;;3.88;67.60;99540.62;1839328;75;21419;-51
2021/04/27 04:06:20;;;;;;;2.20;0.97;;;;;;;4.03;67.37;99529.13;1847083;75;21462;-52
2021/04/27 04:08:53;;;;;;;2.00;1.00;;;;;;;4.21;67.09;99531.77;1781471;78;21175;-51
2021/04/27 04:11:23;;;;;;;3.03;1.30;;;;;;;4.36;66.68;99527.37;1755066;78;21249;-50
2021/04/27 04:13:51;;;;;;;1.63;1.00;;;;;;;4.49;66.31;99531.92;1783325;78;21200;-50
2021/04/27 04:16:19;;;;;;;5.57;1.27;;;;;;;4.56;65.97;99526.38;1800464;77;21188;-51
2021/04/27 04:18:47;;;;;;;2.00;0.90;;;;;;;4.64;65.62;99527.50;1803596;77;21740;-52
2021/04/27 04:21:15;;;;;;;1.50;1.00;;;;;;;4.70;65.27;99528.65;1784790;78;21182;-51
2021/04/27 04:23:43;;;;;;;0.90;0.60;;;;;;;4.75;65.06;99534.75;1777382;78;22718;-51
2021/04/27 04:26:11;;;;;;;2.53;0.63;;;;;;;4.89;64.80;99541.02;1784184;78;21177;-50
2021/04/27 04:28:41;;;;;;;2.90;0.57;;;;;;;5.01;64.57;99536.67;1760059;78;21555;-50
2021/04/27 04:31:09;;;;;;;2.50;0.60;;;;;;;5.11;63.95;99539.45;1785351;78;21177;-51
2021/04/27 04:33:55;;;;;;;2.67;0.70;;;;;;;5.14;63.85;99542.50;1778734;78;22760;-51
2021/04/27 04:36:28;;;;;;;1.10;0.70;;;;;;;5.21;63.71;99540.94;1735588;78;22597;-50
2021/04/27 04:39:14;;;;;;;0.93;0.70;;;;;;;5.30;63.43;99545.13;1785714;78;21208;-50
2021/04/27 04:41:46;;;;;;;1.20;0.80;;;;;;;5.32;63.16;99541.50;1813729;77;21179;-50
2021/04/27 04:44:32;;;;;;;1.77;0.70;;;;;;;5.32;63.18;99540.16;1824655;77;21183;-51
2021/04/27 04:47:24;;;;;;;1.10;0.80;;;;;;;5.29;63.06;99543.37;1866195;75;26661;-51
2021/04/27 04:50:12;;;;;;;1.60;0.83;;;;;;;5.23;63.05;99544.44;1773245;78;21644;-51
2021/04/27 04:52:58;;;;;;;1.20;0.80;;;;;;;5.25;63.18;99543.07;1775105;79;21321;-51
2021/04/27 04:55:35;;;;;;;1.00;0.80;;;;;;;5.29;63.08;99548.71;1768191;78;21008;-51
2021/04/27 04:58:13;;;;;;;2.37;1.00;;;;;;;5.30;62.84;99546.46;1795429;78;21036;-52
2021/04/27 05:00:50;;;;;;;2.10;1.10;;;;;;;5.36;62.80;99538.75;1804169;77;29267;-51
2021/04/27 05:03:36;;;;;;;1.67;1.00;;;;;;;5.40;62.72;99544.39;1793154;77;21573;-51
2021/04/27 05:06:22;;;;;;;0.93;0.60;;;;;;;5.49;62.57;99542.78;1791718;78;21741;-51
2021/04/27 05:09:09;;;;;;;0.80;0.57;;;;;;;5.51;62.47;99539.15;1793137;78;21613;-50
2021/04/27 05:11:46;;;;;;;2.53;0.90;;;;;;;5.52;62.26;99549.37;1791644;77;21179;-51
2021/04/27 05:14:38;;;;;;;4.00;0.70;;;;;;;5.56;61.94;99545.20;1865458;75;26731;-51
2021/04/27 05:17:07;;;;;;;1.10;0.60;;;;;;;5.57;61.81;99550.09;1778513;78;21993;-50
2021/04/27 05:19:36;;;;;;;1.20;0.80;;;;;;;5.58;61.51;99549.16;1805242;78;21833;-50
2021/04/27 05:22:07;;;;;;;1.20;0.60;;;;;;;5.59;61.42;99547.79;1812730;78;20972;-50
2021/04/27 05:24:38;;;;;;;2.10;0.70;;;;;;;5.60;60.89;99551.34;1808389;78;21010;-51
2021/04/27 05:27:08;;;;;;;1.03;0.60;;;;;;;5.58;60.97;99551.84;1772259;79;20941;-50
2021/04/27 05:29:36;;;;;;;0.80;0.60;;;;;;;5.59;60.49;99555.80;1809438;78;21462;-50
2021/04/27 05:32:04;;;;;;;4.10;1.07;;;;;;;5.58;60.58;99553.17;1775376;79;21384;-51
2021/04/27 05:34:32;;;;;;;1.10;0.60;;;;;;;5.55;60.68;99552.80;1771800;79;20981;-51
2021/04/27 05:37:00;;;;;;;3.67;0.70;;;;;;;5.53;60.37;99547.11;1780791;78;20945;-52
2021/04/27 05:39:27;;;;;;;1.13;0.57;;;;;;;5.47;60.10;99549.95;1778140;78;21318;-51
2021/04/27 05:41:55;;;;;;;0.80;0.60;;;;;;;5.41;60.20;99553.69;1770798;78;21119;-51
2021/04/27 05:44:23;;;;;;;1.20;0.70;;;;;;;5.43;60.36;99552.31;1782790;78;21329;-50
2021/04/27 05:46:50;;;;;;;2.37;0.60;;;;;;;5.44;60.33;99552.27;1782118;79;21123;-51
2021/04/27 05:49:18;;;;;;;1.33;0.70;;;;;;;5.45;60.47;99548.66;1794252;78;21122;-51
2021/04/27 05:51:45;;;;;;;0.97;0.60;;;;;;;5.47;60.34;99549.95;1785957;78;21424;-51
2021/04/27 05:54:12;;;;;;;1.97;0.70;;;;;;;5.51;60.31;99551.62;1786342;78;21126;-51
2021/04/27 05:56:39;;;;;;;1.63;0.67;;;;;;;5.56;60.38;99555.01;1793754;78;21372;-51
2021/04/27 05:59:06;;;;;;;2.90;0.77;;;;;;;5.58;59.59;99546.04;1793709;78;21458;-51
2021/04/27 06:01:34;;;;;;;0.83;0.70;;;;;;;5.57;59.88;99542.95;1789739;78;21142;-52
2021/04/27 06:04:01;;;;;;;0.90;0.60;;;;;;;5.60;59.69;99553.55;1790761;78;21652;-50
2021/04/27 06:06:34;;;;;;;0.80;0.40;;;;;;;5.65;59.34;99548.05;1792526;78;21103;-51
2021/04/27 06:09:00;;;;;;;0.97;0.60;;;;;;;5.72;59.21;99552.27;1788844;78;21214;-52
2021/04/27 06:11:28;;;;;;;1.10;0.53;;;;;;;5.81;59.36;99542.63;1786524;78;21795;-51
2021/04/27 06:13:55;;;;;;;1.47;0.50;;;;;;;5.91;59.27;99553.92;1779656;78;21134;-52
2021/04/27 06:16:23;;;;;;;0.73;0.50;;;;;;;6.00;59.00;99554.97;1765821;79;21881;-52
2021/04/27 06:18:51;;;;;;;1.47;0.60;;;;;;;6.08;58.66;99544.89;1775253;78;21793;-52
2021/04/27 06:21:19;;;;;;;1.00;0.60;;;;;;;6.17;58.59;99546.38;1807527;77;23495;-52
2021/04/27 06:23:47;;;;;;;0.60;0.50;;;;;;;6.27;58.07;99548.70;1804424;77;21199;-52
2021/04/27 06:26:14;;;;;;;0.80;0.50;;;;;;;6.33;57.65;99543.59;1805953;78;21182;-52
2021/04/27 06:28:42;;;;;;;5.50;0.40;;;;;;;6.40;56.87;99540.66;1775019;79;21489;-51
2021/04/27 06:31:09;;;;;;;1.23;0.40;;;;;;;6.48;56.36;99535.04;1809477;77;21225;-52
2021/04/27 06:33:37;;;;;;;0.63;0.43;;;;;;;6.54;55.50;99544.67;1809974;77;23106;-52
2021/04/27 06:36:06;;;;;;;0.60;0.40;;;;;;;6.60;54.68;99547.99;1778455;79;21131;-52
2021/04/27 06:38:34;;;;;;;0.60;0.50;;;;;;;6.64;54.02;99545.60;1770704;79;21555;-52
2021/04/27 06:41:01;;;;;;;2.47;0.50;;;;;;;6.69;53.17;99540.98;1806595;77;21194;-51
2021/04/27 06:43:29;;;;;;;0.77;0.40;;;;;;;6.73;53.11;99542.60;1774038;78;21404;-52
2021/04/27 06:45:56;;;;;;;0.93;0.43;;;;;;;6.78;52.83;99546.00;1777063;79;22289;-51
2021/04/27 06:48:23;;;;;;;0.40;0.40;;;;;;;6.86;52.29;99538.16;1779134;78;21222;-52
2021/04/27 06:50:51;;;;;;;0.43;0.30;;;;;;;6.90;51.87;99543.79;1781961;78;21012;-51
2021/04/27 06:53:19;;;;;;;0.90;0.40;;;;;;;6.93;51.91;99545.03;1782454;79;21202;-52
2021/04/27 06:55:47;;;;;;;1.33;0.23;;;;;;;6.90;51.39;99537.97;1778657;79;21601;-52
2021/04/27 06:58:16;;;;;;;1.23;0.40;;;;;;;6.89;51.80;99540.23;1780024;79;20977;-52
2021/04/27 07:00:43;;;;;;;0.50;0.20;;;;;;;6.94;50.68;99540.09;1811414;77;21202;-52
2021/04/27 07:03:11;;;;;;;2.10;0.30;;;;;;;6.95;50.04;99544.05;1811287;77;21114;-53
2021/04/27 07:05:41;;;;;;;0.40;0.30;;;;;;;6.95;49.71;99541.38;1780621;79;21123;-52
2021/04/27 07:08:08;;;;;;;0.40;0.40;;;;;;;6.95;48.95;99527.12;1812282;77;21079;-52
2021/04/27 07:10:37;;;;;;;0.40;0.30;;;;;;;7.00;49.05;99534.50;1776734;78;21434;-51
2021/04/27 07:13:05;;;;;;;1.50;0.30;;;;;;;7.08;49.01;99541.77;1776859;79;21256;-52
2021/04/27 07:15:32;;;;;;;0.50;0.40;;;;;;;7.15;48.58;99537.47;1756685;79;21187;-52
2021/04/27 07:17:59;;;;;;;0.70;0.40;;;;;;;7.18;48.20;99545.86;1756299;79;21181;-52
2021/04/27 07:20:28;;;;;;;0.40;0.30;;;;;;;7.20;48.32;99538.19;1756348;79;21594;-52
2021/04/27 07:22:58;;;;;;;0.50;0.30;;;;;;;7.21;48.59;99538.59;1752420;79;21882;-51
2021/04/27 07:25:26;;;;;;;0.50;0.30;;;;;;;7.29;48.55;99538.77;1753839;79;21478;-52
2021/04/27 07:27:53;;;;;;;0.60;0.30;;;;;;;7.36;48.17;99543.83;1756900;79;21185;-52
2021/04/27 07:30:21;;;;;;;0.60;0.30;;;;;;;7.38;46.99;99547.78;1755908;79;21393;-52
2021/04/27 07:32:49;;;;;;;0.77;0.33;;;;;;;7.34;46.45;99542.13;1755514;79;21603;-51
2021/04/27 07:35:17;;;;;;;0.40;0.30;;;;;;;7.34;46.44;99541.66;1754492;79;21926;-52
2021/04/27 07:37:44;;;;;;;0.40;0.30;;;;;;;7.34;46.49;99542.13;1756726;79;21169;-52
2021/04/27 07:40:11;;;;;;;0.50;0.30;;;;;;;7.36;47.23;99541.61;1758392;79;21179;-52
2021/04/27 07:42:40;;;;;;;0.40;0.30;;;;;;;7.41;47.25;99531.58;1758205;79;21185;-52
2021/04/27 07:45:08;;;;;;;1.00;0.30;;;;;;;7.45;46.18;99528.74;1752917;79;21755;-52
2021/04/27 07:47:36;;;;;;;0.40;0.23;;;;;;;7.48;45.95;99529.09;1749364;79;21534;-52
2021/04/27 07:50:05;;;;;;;0.40;0.30;;;;;;;7.51;45.80;99529.83;1755033;79;21221;-51
2021/04/27 07:54:16;;;;;;;0.70;0.40;;;;;;;7.65;44.91;99520.39;1791519;78;26849;-52
2021/04/27 07:56:44;;;;;;;0.40;0.30;;;;;;;7.60;45.06;99519.22;1765235;79;21206;-52
2021/04/27 07:59:13;;;;;;;1.00;0.60;;;;;;;7.64;46.08;99530.23;1767457;79;22347;-52
2021/04/27 08:01:40;;;;;;;0.43;0.40;;;;;;;7.71;45.22;99533.06;1770354;79;20981;-52
2021/04/27 08:04:07;;;;;;;0.80;0.20;;;;;;;7.75;44.41;99520.41;1769269;79;21393;-50
2021/04/27 08:06:35;;;;;;;0.30;0.20;;;;;;;7.82;44.01;99515.23;1710003;81;21175;-52
2021/04/27 08:09:05;;;;;;;0.60;0.40;;;;;;;7.89;43.78;99512.23;1710362;83;21147;-52
2021/04/27 08:11:32;;;;;;;0.40;0.37;;;;;;;7.92;43.92;99517.45;1731870;81;21303;-51
2021/04/27 08:14:00;;;;;;;0.63;0.30;;;;;;;7.88;44.25;99513.16;1717174;81;21512;-52
2021/04/27 08:16:27;;;;;;;0.43;0.30;;;;;;;7.91;44.47;99513.02;1705137;82;21065;-52
2021/04/27 08:18:55;;;;;;;0.40;0.20;;;;;;;7.95;43.43;99513.77;1734993;81;21502;-52
2021/04/27 08:21:24;;;;;;;0.50;0.40;;;;;;;7.93;43.14;99516.98;1731250;81;21523;-52
2021/04/27 08:23:54;;;;;;;1.43;0.30;;;;;;;7.94;43.36;99521.41;1698721;82;21354;-51
2021/04/27 08:26:23;;;;;;;0.37;0.30;;;;;;;7.97;43.85;99522.17;1736263;81;21230;-51
2021/04/27 08:28:50;;;;;;;0.50;0.30;;;;;;;8.03;42.54;99521.03;1733478;81;21203;-51
2021/04/27 08:31:19;;;;;;;0.30;0.30;;;;;;;8.07;43.28;99519.98;1732401;81;21191;-51
2021/04/27 08:33:46;;;;;;;0.40;0.30;;;;;;;8.15;43.69;99520.53;1733092;81;21175;-50
2021/04/27 08:36:14;;;;;;;0.50;0.30;;;;;;;8.28;44.37;99508.34;1736782;81;21381;-52
2021/04/27 08:38:42;;;;;;;0.70;0.30;;;;;;;8.42;43.14;99508.27;1711332;82;21239;-52
2021/04/27 08:41:11;;;;;;;0.50;0.30;;;;;;;8.45;42.10;99500.94;1713932;82;21194;-51
2021/04/27 08:43:39;;;;;;;2.20;0.30;;;;;;;8.42;42.68;99506.42;1716007;82;21207;-51
2021/04/27 08:46:06;;;;;;;0.20;0.20;;;;;;;8.44;41.95;99516.62;1713086;82;21199;-52
2021/04/27 08:48:35;;;;;;;0.57;0.37;;;;;;;8.50;41.50;99514.16;1686845;82;21223;-52
2021/04/27 08:51:04;;;;;;;1.47;0.40;;;;;;;8.51;41.35;99506.02;1715938;82;21593;-51
2021/04/27 08:53:32;;;;;;;0.97;0.30;;;;;;;8.55;42.42;99502.28;1700088;82;21207;-52
2021/04/27 08:56:01;;;;;;;0.90;0.30;;;;;;;8.72;42.10;99499.72;1711990;80;21191;-52
2021/04/27 08:58:30;;;;;;;0.30;0.20;;;;;;;8.87;41.52;99490.57;1710188;80;21235;-53
2021/04/27 09:00:58;;;;;;;0.47;0.30;;;;;;;8.98;40.05;99504.39;1715062;80;21405;-52
2021/04/27 09:03:25;;;;;;;0.37;0.27;;;;;;;9.03;39.26;99497.85;1713415;80;22008;-52
2021/04/27 09:05:52;;;;;;;1.23;0.27;;;;;;;9.07;39.86;99499.94;1713544;80;21191;-51
2021/04/27 09:08:39;;;;;;;1.60;0.40;;;;;;;9.13;39.47;99500.11;1710903;80;21195;-53
2021/04/27 09:11:29;;;;;;;0.40;0.30;;;;;;;9.20;40.50;99498.88;1715167;80;21108;-52
2021/04/27 09:14:22;;;;;;;2.20;0.30;;;;;;;9.31;40.14;99492.08;1718700;80;21379;-51
2021/04/27 09:16:54;;;;;;;0.20;0.17;;;;;;;9.45;38.36;99495.44;1692943;80;21236;-52
2021/04/27 09:19:49;;;;;;;0.30;0.20;;;;;;;9.54;38.14;99486.06;1714175;80;21147;-52
2021/04/27 09:22:28;;;;;;;0.25;0.20;;;;;;;9.58;38.44;99494.40;1718054;80;21155;-52
2021/04/27 09:25:01;;;;;;;1.60;0.30;;;;;;;9.64;38.68;99490.06;1714352;80;21570;-53
2021/04/27 09:27:37;;;;;;;0.40;0.20;;;;;;;9.69;38.62;99497.45;1710730;80;21794;-52
2021/04/27 09:30:23;;;;;;;0.33;0.30;;;;;;;9.68;37.58;99491.20;1716052;80;21004;-52
2021/04/27 09:33:07;;;;;;;0.37;0.30;;;;;;;9.63;36.90;99485.63;1717522;80;21119;-53
2021/04/27 09:35:46;;;;;;;3.57;0.40;;;;;;;9.49;37.92;99495.23;1712697;80;21124;-57
2021/04/27 09:38:31;;;;;;;0.47;0.23;;;;;;;9.50;38.46;99494.77;1716848;80;21155;-53
2021/04/27 09:41:04;;;;;;;0.40;0.30;;;;;;;9.55;37.92;99498.09;1715906;80;22226;-53
2021/04/27 09:43:41;;;;;;;0.50;0.20;;;;;;;9.58;37.13;99499.30;1715243;80;21116;-52
2021/04/27 09:46:14;;;;;;;0.50;0.30;;;;;;;9.60;37.10;99494.73;1718010;80;21174;-52
2021/04/27 09:48:56;;;;;;;0.40;0.20;;;;;;;9.60;37.16;99489.83;1715386;80;21204;-52
2021/04/27 09:51:32;;;;;;;0.93;0.27;;;;;;;9.62;37.16;99490.59;1712507;80;21104;-53
2021/04/27 09:54:03;;;;;;;0.47;0.30;;;;;;;9.66;37.71;99483.67;1726956;80;21224;-52
2021/04/27 09:56:51;;;;;;;0.23;0.20;;;;;;;9.72;37.26;99481.15;1737513;80;21569;-52
2021/04/27 09:59:28;;;;;;;0.37;0.20;;;;;;;9.78;36.27;99482.22;1741105;80;21155;-53
2021/04/27 10:01:56;;;;;;;0.30;0.27;;;;;;;9.78;36.33;99489.77;1736581;80;21119;-52
2021/04/27 10:04:28;;;;;;;0.20;0.20;;;;;;;9.80;36.68;99479.83;1742101;80;21762;-53
2021/04/27 10:07:02;;;;;;;0.50;0.28;;;;;;;9.82;36.83;99481.97;1737768;80;21373;-52
2021/04/27 10:09:30;;;;;;;0.30;0.20;;;;;;;9.80;36.25;99483.86;1734207;80;21197;-52
2021/04/27 10:11:57;;;;;;;0.30;0.20;;;;;;;9.78;36.31;99485.74;1733504;80;21202;-53
2021/04/27 10:14:26;;;;;;;0.20;0.20;;;;;;;9.80;36.49;99498.64;1736080;80;21200;-53
2021/04/27 10:16:53;;;;;;;0.40;0.17;;;;;;;9.79;35.89;99499.59;1709579;81;22297;-53
2021/04/27 10:19:21;;;;;;;1.27;0.20;;;;;;;9.71;36.30;99500.44;1737442;81;21406;-53
2021/04/27 10:21:51;;;;;;;0.30;0.20;;;;;;;9.70;36.21;99493.31;1734400;80;21167;-53
2021/04/27 10:24:26;;;;;;;0.30;0.20;;;;;;;9.69;36.20;99487.56;1732699;81;21250;-53
2021/04/27 10:26:51;;;;;;;1.40;0.30;;;;;;;9.73;36.23;99485.58;1739650;81;21182;-53
2021/04/27 10:29:24;;;;;;;0.20;0.10;;;;;;;9.79;36.26;99477.20;1737571;81;21206;-53
2021/04/27 10:32:16;;;;;;;0.30;0.20;;;;;;;9.83;36.14;99483.72;1737064;80;21554;-54
2021/04/27 10:35:05;;;;;;;1.23;0.20;;;;;;;9.83;35.77;99481.03;1734414;80;21225;-53
2021/04/27 10:38:06;;;;;;;1.17;0.30;;;;;;;9.75;34.94;99478.33;1730651;80;21478;-52
2021/04/27 10:40:47;;;;;;;0.40;0.20;;;;;;;9.68;35.51;99475.08;1741810;81;21175;-51
2021/04/27 10:43:30;;;;;;;0.60;0.30;;;;;;;9.68;35.00;99476.89;1732551;80;21187;-51
2021/04/27 10:46:21;;;;;;;0.40;0.20;;;;;;;9.66;35.22;99480.11;1744121;80;21584;-51
2021/04/27 10:48:48;;;;;;;0.40;0.30;;;;;;;9.64;36.27;99482.87;1733913;80;21210;-52
2021/04/27 10:51:27;;;;;;;0.30;0.20;;;;;;;9.62;36.41;99479.38;1742082;80;21827;-52
2021/04/27 10:54:15;;;;;;;0.30;0.20;;;;;;;9.60;36.70;99482.64;1752389;80;21210;-52
2021/04/27 10:56:50;;;;;;;0.40;0.20;;;;;;;9.66;36.87;99480.98;1752769;80;21167;-52
2021/04/27 10:59:25;;;;;;;0.30;0.20;;;;;;;9.76;36.70;99472.88;1718024;82;21342;-51
2021/04/27 11:02:11;;;;;;;;;;;;;;;9.84;36.88;99477.40;1772259;80;21167;-52
2021/04/27 11:04:50;;;;;;;0.23;0.20;;;;;;;9.92;35.93;99478.83;1762080;80;20290;-51
2021/04/27 11:07:25;;;;;;;0.83;0.30;;;;;;;9.90;36.00;99472.66;1766103;80;21184;-50
2021/04/27 11:10:04;;;;;;;0.40;0.20;;;;;;;9.88;36.02;99476.28;1764781;79;21179;-52
2021/04/27 11:12:46;;;;;;;0.93;0.30;;;;;;;9.85;36.53;99468.39;1763236;79;21558;-52
2021/04/27 11:15:25;;;;;;;0.30;0.20;;;;;;;9.80;36.85;99465.52;1755584;79;21492;-51
2021/04/27 11:18:04;;;;;;;0.40;0.30;;;;;;;9.77;37.65;99467.03;1696380;83;21220;-51
2021/04/27 11:21:04;;;;;;;0.20;0.20;;;;;;;9.82;37.49;99463.62;1701521;82;21203;-52
2021/04/27 11:23:58;;;;;;;0.30;0.23;;;;;;;9.88;37.75;99463.31;1761814;80;21225;-52
2021/04/27 11:26:38;;;;;;;0.50;0.30;;;;;;;9.92;37.43;99460.88;1728427;82;21210;-52
2021/04/27 11:29:24;;;;;;;0.37;0.20;;;;;;;9.96;38.07;99457.55;1699945;82;21608;-51
2021/04/27 11:32:02;;;;;;;2.17;0.20;;;;;;;9.96;38.08;99462.92;1762126;80;22328;-51
2021/04/27 11:34:32;;;;;;;1.73;0.20;;;;;;;9.90;38.33;99463.24;1761647;80;21189;-52
2021/04/27 11:36:59;;;;;;;0.40;0.20;;;;;;;9.80;38.72;99460.14;1701722;82;21219;-51
2021/04/27 11:39:28;;;;;;;0.40;0.27;;;;;;;9.71;38.91;99453.40;1762063;79;21623;-52
2021/04/27 11:42:01;;;;;;;0.20;0.20;;;;;;;9.68;38.65;99449.55;1766554;80;21141;-54
2021/04/27 11:44:35;;;;;;;0.30;0.20;;;;;;;9.65;38.84;99452.84;1766388;79;21482;-52
2021/04/27 11:47:09;;;;;;;;;;;;;;;9.62;38.05;99452.98;1697463;82;21776;-52
2021/04/27 11:49:58;;;;;;;1.33;0.20;;;;;;;9.58;38.64;99456.31;1691533;84;20291;-52
2021/04/27 11:52:54;;;;;;;0.40;0.20;;;;;;;9.47;39.18;99462.19;1760561;80;22298;-52
2021/04/27 11:55:39;;;;;;;0.30;0.20;;;;;;;9.39;39.93;99459.00;1763723;80;21198;-52
2021/04/27 11:58:12;;;;;;;0.47;0.33;;;;;;;9.36;40.12;99448.87;1759721;80;21479;-52
2021/04/27 12:00:59;;;;;;;0.40;0.30;;;;;;;9.33;40.15;99457.09;1765091;80;22331;-52
2021/04/27 12:03:42;;;;;;;0.50;0.30;;;;;;;9.35;40.29;99451.19;1764397;79;21187;-51
2021/04/27 12:06:16;;;;;;;0.27;0.20;;;;;;;9.41;40.59;99458.94;1766507;80;21202;-53